sensor_id;sensor_type;location;lat;lon;timestamp;P1;durP1;ratioP1;P2;durP2;ratioP2
7338;SDS011;33747;49.524;8.390;2023-05-28T00:01:43;13.77;;;5.50;;
7338;SDS011;33747;49.524;8.390;2023-05-28T00:04:09;12.90;;;5.50;;
7338;SDS011;33747;49.524;8.390;2023-05-28T00:06:34;19.52;;;5.85;;
7338;SDS011;33747;49.524;8.390;2023-05-28T00:09:00;12.93;;;4.70;;
7338;SDS011;33747;49.524;8.390;2023-05-28T00:11:25;16.63;;;6.13;;
7338;SDS011;33747;49.524;8.390;2023-05-28T00:13:51;10.73;;;4.72;;
7338;SDS011;33747;49.524;8.390;2023-05-28T00:16:16;15.88;;;4.88;;
7338;SDS011;33747;49.524;8.390;2023-05-28T00:18:41;13.93;;;5.45;;
7338;SDS011;33747;49.524;8.390;2023-05-28T00:21:07;10.20;;;4.70;;
7338;SDS011;33747;49.524;8.390;2023-05-28T00:23:32;8.90;;;4.93;;
7338;SDS011;33747;49.524;8.390;2023-05-28T00:25:57;12.82;;;5.07;;
7338;SDS011;33747;49.524;8.390;2023-05-28T00:28:23;11.98;;;5.82;;
7338;SDS011;33747;49.524;8.390;2023-05-28T00:30:48;9.65;;;5.00;;
7338;SDS011;33747;49.524;8.390;2023-05-28T00:33:13;14.95;;;5.78;;
7338;SDS011;33747;49.524;8.390;2023-05-28T00:35:39;12.82;;;5.45;;
7338;SDS011;33747;49.524;8.390;2023-05-28T00:38:04;10.68;;;4.88;;
7338;SDS011;33747;49.524;8.390;2023-05-28T00:40:30;15.55;;;5.43;;
7338;SDS011;33747;49.524;8.390;2023-05-28T00:42:55;12.77;;;5.05;;
7338;SDS011;33747;49.524;8.390;2023-05-28T00:45:20;14.10;;;4.65;;
7338;SDS011;33747;49.524;8.390;2023-05-28T00:47:46;12.30;;;4.85;;
7338;SDS011;33747;49.524;8.390;2023-05-28T00:50:12;11.73;;;4.80;;
7338;SDS011;33747;49.524;8.390;2023-05-28T00:52:38;12.93;;;4.90;;
7338;SDS011;33747;49.524;8.390;2023-05-28T00:55:13;12.80;;;4.85;;
7338;SDS011;33747;49.524;8.390;2023-05-28T00:57:39;16.10;;;4.63;;
7338;SDS011;33747;49.524;8.390;2023-05-28T01:00:05;14.77;;;4.93;;
7338;SDS011;33747;49.524;8.390;2023-05-28T01:02:31;14.38;;;5.10;;
7338;SDS011;33747;49.524;8.390;2023-05-28T01:04:56;13.80;;;4.88;;
7338;SDS011;33747;49.524;8.390;2023-05-28T01:07:22;11.10;;;5.03;;
7338;SDS011;33747;49.524;8.390;2023-05-28T01:09:47;19.50;;;5.65;;
7338;SDS011;33747;49.524;8.390;2023-05-28T01:12:13;15.07;;;4.88;;
7338;SDS011;33747;49.524;8.390;2023-05-28T01:14:38;9.05;;;5.05;;
7338;SDS011;33747;49.524;8.390;2023-05-28T01:17:04;15.27;;;5.05;;
7338;SDS011;33747;49.524;8.390;2023-05-28T01:19:30;16.77;;;4.70;;
7338;SDS011;33747;49.524;8.390;2023-05-28T01:21:58;11.80;;;5.03;;
7338;SDS011;33747;49.524;8.390;2023-05-28T01:24:27;12.68;;;4.90;;
7338;SDS011;33747;49.524;8.390;2023-05-28T01:26:54;11.13;;;5.63;;
7338;SDS011;33747;49.524;8.390;2023-05-28T01:29:20;11.45;;;5.30;;
7338;SDS011;33747;49.524;8.390;2023-05-28T01:31:46;10.27;;;5.38;;
7338;SDS011;33747;49.524;8.390;2023-05-28T01:34:11;9.77;;;5.05;;
7338;SDS011;33747;49.524;8.390;2023-05-28T01:36:44;14.48;;;5.55;;
7338;SDS011;33747;49.524;8.390;2023-05-28T01:39:15;13.35;;;5.57;;
7338;SDS011;33747;49.524;8.390;2023-05-28T01:41:42;16.30;;;6.28;;
7338;SDS011;33747;49.524;8.390;2023-05-28T01:44:08;14.15;;;5.20;;
7338;SDS011;33747;49.524;8.390;2023-05-28T01:46:37;18.38;;;5.25;;
7338;SDS011;33747;49.524;8.390;2023-05-28T01:49:03;13.75;;;5.07;;
7338;SDS011;33747;49.524;8.390;2023-05-28T01:51:29;17.92;;;6.10;;
7338;SDS011;33747;49.524;8.390;2023-05-28T01:53:54;10.90;;;4.90;;
7338;SDS011;33747;49.524;8.390;2023-05-28T01:56:20;15.75;;;5.72;;
7338;SDS011;33747;49.524;8.390;2023-05-28T01:58:45;11.75;;;5.45;;
7338;SDS011;33747;49.524;8.390;2023-05-28T02:06:20;16.17;;;5.35;;
7338;SDS011;33747;49.524;8.390;2023-05-28T02:08:46;9.02;;;4.97;;
7338;SDS011;33747;49.524;8.390;2023-05-28T02:11:11;16.10;;;5.13;;
7338;SDS011;33747;49.524;8.390;2023-05-28T02:13:36;14.57;;;5.10;;
7338;SDS011;33747;49.524;8.390;2023-05-28T02:16:04;14.18;;;5.28;;
7338;SDS011;33747;49.524;8.390;2023-05-28T02:18:31;18.17;;;5.05;;
7338;SDS011;33747;49.524;8.390;2023-05-28T02:20:56;17.67;;;5.65;;
7338;SDS011;33747;49.524;8.390;2023-05-28T02:23:22;21.20;;;5.70;;
7338;SDS011;33747;49.524;8.390;2023-05-28T02:25:47;16.80;;;5.20;;
7338;SDS011;33747;49.524;8.390;2023-05-28T02:28:13;11.52;;;5.00;;
7338;SDS011;33747;49.524;8.390;2023-05-28T02:30:38;14.73;;;4.82;;
7338;SDS011;33747;49.524;8.390;2023-05-28T02:33:03;12.15;;;5.15;;
7338;SDS011;33747;49.524;8.390;2023-05-28T02:35:29;10.20;;;4.90;;
7338;SDS011;33747;49.524;8.390;2023-05-28T02:37:55;10.85;;;5.32;;
7338;SDS011;33747;49.524;8.390;2023-05-28T02:40:21;14.38;;;5.65;;
7338;SDS011;33747;49.524;8.390;2023-05-28T02:42:46;12.35;;;4.97;;
7338;SDS011;33747;49.524;8.390;2023-05-28T02:45:11;12.63;;;5.07;;
7338;SDS011;33747;49.524;8.390;2023-05-28T02:47:37;17.70;;;5.53;;
7338;SDS011;33747;49.524;8.390;2023-05-28T02:50:02;11.88;;;5.35;;
7338;SDS011;33747;49.524;8.390;2023-05-28T02:52:28;10.05;;;5.18;;
7338;SDS011;33747;49.524;8.390;2023-05-28T02:54:53;15.90;;;4.97;;
7338;SDS011;33747;49.524;8.390;2023-05-28T02:57:19;10.27;;;4.53;;
7338;SDS011;33747;49.524;8.390;2023-05-28T02:59:44;18.80;;;4.90;;
7338;SDS011;33747;49.524;8.390;2023-05-28T03:02:10;12.32;;;5.00;;
7338;SDS011;33747;49.524;8.390;2023-05-28T03:04:35;16.42;;;5.65;;
7338;SDS011;33747;49.524;8.390;2023-05-28T03:07:02;12.25;;;4.63;;
7338;SDS011;33747;49.524;8.390;2023-05-28T03:09:27;12.98;;;4.85;;
7338;SDS011;33747;49.524;8.390;2023-05-28T03:11:53;12.32;;;5.10;;
7338;SDS011;33747;49.524;8.390;2023-05-28T03:14:18;14.10;;;5.30;;
7338;SDS011;33747;49.524;8.390;2023-05-28T03:16:43;9.30;;;4.82;;
7338;SDS011;33747;49.524;8.390;2023-05-28T03:19:09;10.13;;;5.13;;
7338;SDS011;33747;49.524;8.390;2023-05-28T03:21:34;10.75;;;4.70;;
7338;SDS011;33747;49.524;8.390;2023-05-28T03:24:00;10.35;;;4.82;;
7338;SDS011;33747;49.524;8.390;2023-05-28T03:26:25;14.27;;;4.72;;
7338;SDS011;33747;49.524;8.390;2023-05-28T03:28:51;9.63;;;4.50;;
7338;SDS011;33747;49.524;8.390;2023-05-28T03:31:16;15.98;;;4.45;;
7338;SDS011;33747;49.524;8.390;2023-05-28T03:33:42;10.88;;;4.85;;
7338;SDS011;33747;49.524;8.390;2023-05-28T03:36:07;14.05;;;6.15;;
7338;SDS011;33747;49.524;8.390;2023-05-28T03:38:33;13.48;;;5.22;;
7338;SDS011;33747;49.524;8.390;2023-05-28T03:40:58;12.45;;;5.18;;
7338;SDS011;33747;49.524;8.390;2023-05-28T03:43:24;11.02;;;5.00;;
7338;SDS011;33747;49.524;8.390;2023-05-28T03:45:50;13.18;;;4.93;;
7338;SDS011;33747;49.524;8.390;2023-05-28T03:48:15;9.65;;;4.50;;
7338;SDS011;33747;49.524;8.390;2023-05-28T03:50:41;13.75;;;4.85;;
7338;SDS011;33747;49.524;8.390;2023-05-28T03:53:06;9.05;;;4.47;;
7338;SDS011;33747;49.524;8.390;2023-05-28T03:55:32;10.50;;;4.65;;
7338;SDS011;33747;49.524;8.390;2023-05-28T03:57:58;14.02;;;5.00;;
7338;SDS011;33747;49.524;8.390;2023-05-28T04:00:23;10.05;;;4.82;;
7338;SDS011;33747;49.524;8.390;2023-05-28T04:02:49;12.55;;;4.85;;
7338;SDS011;33747;49.524;8.390;2023-05-28T04:05:14;14.20;;;5.18;;
7338;SDS011;33747;49.524;8.390;2023-05-28T04:07:40;14.68;;;5.85;;
7338;SDS011;33747;49.524;8.390;2023-05-28T04:10:05;10.75;;;4.82;;
7338;SDS011;33747;49.524;8.390;2023-05-28T04:12:31;16.02;;;5.10;;
7338;SDS011;33747;49.524;8.390;2023-05-28T04:14:57;12.82;;;5.07;;
7338;SDS011;33747;49.524;8.390;2023-05-28T04:17:23;9.25;;;4.68;;
7338;SDS011;33747;49.524;8.390;2023-05-28T04:19:49;16.00;;;5.03;;
7338;SDS011;33747;49.524;8.390;2023-05-28T04:22:16;12.10;;;4.97;;
7338;SDS011;33747;49.524;8.390;2023-05-28T04:24:42;16.58;;;4.63;;
7338;SDS011;33747;49.524;8.390;2023-05-28T04:27:07;8.40;;;4.60;;
7338;SDS011;33747;49.524;8.390;2023-05-28T04:29:33;9.07;;;5.00;;
7338;SDS011;33747;49.524;8.390;2023-05-28T04:31:58;9.02;;;4.47;;
7338;SDS011;33747;49.524;8.390;2023-05-28T04:34:24;11.25;;;5.05;;
7338;SDS011;33747;49.524;8.390;2023-05-28T04:36:49;10.55;;;4.95;;
7338;SDS011;33747;49.524;8.390;2023-05-28T04:39:16;16.10;;;4.85;;
7338;SDS011;33747;49.524;8.390;2023-05-28T04:41:42;8.30;;;5.13;;
7338;SDS011;33747;49.524;8.390;2023-05-28T04:44:08;11.27;;;5.22;;
7338;SDS011;33747;49.524;8.390;2023-05-28T04:46:34;12.48;;;4.78;;
7338;SDS011;33747;49.524;8.390;2023-05-28T04:49:02;11.30;;;4.72;;
7338;SDS011;33747;49.524;8.390;2023-05-28T04:51:27;12.70;;;4.40;;
7338;SDS011;33747;49.524;8.390;2023-05-28T04:53:53;18.27;;;4.55;;
7338;SDS011;33747;49.524;8.390;2023-05-28T04:56:18;8.27;;;4.45;;
7338;SDS011;33747;49.524;8.390;2023-05-28T04:58:44;7.68;;;4.20;;
7338;SDS011;33747;49.524;8.390;2023-05-28T05:01:11;8.25;;;4.60;;
7338;SDS011;33747;49.524;8.390;2023-05-28T05:03:39;11.75;;;4.50;;
7338;SDS011;33747;49.524;8.390;2023-05-28T05:06:06;10.10;;;3.88;;
7338;SDS011;33747;49.524;8.390;2023-05-28T05:08:32;10.25;;;4.55;;
7338;SDS011;33747;49.524;8.390;2023-05-28T05:10:57;10.88;;;5.00;;
7338;SDS011;33747;49.524;8.390;2023-05-28T05:13:25;7.95;;;3.95;;
7338;SDS011;33747;49.524;8.390;2023-05-28T05:15:50;9.77;;;4.55;;
7338;SDS011;33747;49.524;8.390;2023-05-28T05:18:16;11.43;;;4.63;;
7338;SDS011;33747;49.524;8.390;2023-05-28T05:20:41;11.73;;;4.63;;
7338;SDS011;33747;49.524;8.390;2023-05-28T05:23:06;10.27;;;4.85;;
7338;SDS011;33747;49.524;8.390;2023-05-28T05:25:32;10.23;;;4.47;;
7338;SDS011;33747;49.524;8.390;2023-05-28T05:27:57;14.27;;;4.95;;
7338;SDS011;33747;49.524;8.390;2023-05-28T05:30:23;11.18;;;4.57;;
7338;SDS011;33747;49.524;8.390;2023-05-28T05:32:48;6.45;;;4.07;;
7338;SDS011;33747;49.524;8.390;2023-05-28T05:35:13;9.27;;;4.13;;
7338;SDS011;33747;49.524;8.390;2023-05-28T05:37:40;10.02;;;4.60;;
7338;SDS011;33747;49.524;8.390;2023-05-28T05:40:05;11.30;;;3.85;;
7338;SDS011;33747;49.524;8.390;2023-05-28T05:42:31;12.70;;;4.60;;
7338;SDS011;33747;49.524;8.390;2023-05-28T05:44:56;8.95;;;3.88;;
7338;SDS011;33747;49.524;8.390;2023-05-28T05:47:22;7.53;;;4.15;;
7338;SDS011;33747;49.524;8.390;2023-05-28T05:49:47;14.43;;;4.65;;
7338;SDS011;33747;49.524;8.390;2023-05-28T05:52:12;8.63;;;3.72;;
7338;SDS011;33747;49.524;8.390;2023-05-28T05:54:38;9.20;;;3.95;;
7338;SDS011;33747;49.524;8.390;2023-05-28T05:57:03;4.38;;;3.30;;
7338;SDS011;33747;49.524;8.390;2023-05-28T05:59:29;10.55;;;4.43;;
7338;SDS011;33747;49.524;8.390;2023-05-28T06:01:54;6.05;;;3.75;;
7338;SDS011;33747;49.524;8.390;2023-05-28T06:04:20;6.40;;;3.70;;
7338;SDS011;33747;49.524;8.390;2023-05-28T06:06:45;11.20;;;4.60;;
7338;SDS011;33747;49.524;8.390;2023-05-28T06:09:11;9.18;;;3.80;;
7338;SDS011;33747;49.524;8.390;2023-05-28T06:11:36;8.25;;;3.97;;
7338;SDS011;33747;49.524;8.390;2023-05-28T06:14:02;9.40;;;4.25;;
7338;SDS011;33747;49.524;8.390;2023-05-28T06:16:27;11.00;;;4.20;;
7338;SDS011;33747;49.524;8.390;2023-05-28T06:18:53;10.45;;;4.43;;
7338;SDS011;33747;49.524;8.390;2023-05-28T06:21:18;9.02;;;3.58;;
7338;SDS011;33747;49.524;8.390;2023-05-28T06:23:44;9.85;;;4.47;;
7338;SDS011;33747;49.524;8.390;2023-05-28T06:26:09;8.50;;;4.00;;
7338;SDS011;33747;49.524;8.390;2023-05-28T06:28:35;7.75;;;3.70;;
7338;SDS011;33747;49.524;8.390;2023-05-28T06:31:00;6.63;;;3.30;;
7338;SDS011;33747;49.524;8.390;2023-05-28T06:33:25;6.47;;;3.42;;
7338;SDS011;33747;49.524;8.390;2023-05-28T06:35:51;10.93;;;4.55;;
7338;SDS011;33747;49.524;8.390;2023-05-28T06:38:16;7.75;;;4.10;;
7338;SDS011;33747;49.524;8.390;2023-05-28T06:40:42;13.40;;;4.15;;
7338;SDS011;33747;49.524;8.390;2023-05-28T06:43:08;8.68;;;3.67;;
7338;SDS011;33747;49.524;8.390;2023-05-28T06:45:33;7.78;;;3.72;;
7338;SDS011;33747;49.524;8.390;2023-05-28T06:47:59;7.93;;;3.60;;
7338;SDS011;33747;49.524;8.390;2023-05-28T06:50:24;6.53;;;3.65;;
7338;SDS011;33747;49.524;8.390;2023-05-28T06:52:50;8.48;;;3.78;;
7338;SDS011;33747;49.524;8.390;2023-05-28T06:55:15;6.47;;;4.13;;
7338;SDS011;33747;49.524;8.390;2023-05-28T06:57:41;9.98;;;4.03;;
7338;SDS011;33747;49.524;8.390;2023-05-28T07:00:06;8.52;;;4.13;;
7338;SDS011;33747;49.524;8.390;2023-05-28T07:02:35;10.57;;;4.97;;
7338;SDS011;33747;49.524;8.390;2023-05-28T07:05:01;6.78;;;4.30;;
7338;SDS011;33747;49.524;8.390;2023-05-28T07:07:29;9.32;;;4.07;;
7338;SDS011;33747;49.524;8.390;2023-05-28T07:09:55;7.95;;;3.90;;
7338;SDS011;33747;49.524;8.390;2023-05-28T07:12:20;11.48;;;3.92;;
7338;SDS011;33747;49.524;8.390;2023-05-28T07:14:46;7.03;;;3.90;;
7338;SDS011;33747;49.524;8.390;2023-05-28T07:17:11;10.25;;;4.22;;
7338;SDS011;33747;49.524;8.390;2023-05-28T07:19:36;8.07;;;3.67;;
7338;SDS011;33747;49.524;8.390;2023-05-28T07:22:02;6.85;;;3.97;;
7338;SDS011;33747;49.524;8.390;2023-05-28T07:24:27;11.00;;;3.50;;
7338;SDS011;33747;49.524;8.390;2023-05-28T07:26:52;14.35;;;4.20;;
7338;SDS011;33747;49.524;8.390;2023-05-28T07:29:18;7.93;;;4.07;;
7338;SDS011;33747;49.524;8.390;2023-05-28T07:31:43;10.45;;;4.18;;
7338;SDS011;33747;49.524;8.390;2023-05-28T07:34:09;17.55;;;4.53;;
7338;SDS011;33747;49.524;8.390;2023-05-28T07:36:34;8.43;;;4.05;;
7338;SDS011;33747;49.524;8.390;2023-05-28T07:39:00;7.45;;;3.90;;
7338;SDS011;33747;49.524;8.390;2023-05-28T07:41:26;17.92;;;4.22;;
7338;SDS011;33747;49.524;8.390;2023-05-28T07:43:51;7.75;;;3.45;;
7338;SDS011;33747;49.524;8.390;2023-05-28T07:46:17;14.63;;;4.22;;
7338;SDS011;33747;49.524;8.390;2023-05-28T07:48:42;8.52;;;4.25;;
7338;SDS011;33747;49.524;8.390;2023-05-28T07:51:08;12.88;;;4.55;;
7338;SDS011;33747;49.524;8.390;2023-05-28T07:53:35;8.90;;;4.03;;
7338;SDS011;33747;49.524;8.390;2023-05-28T07:56:00;11.70;;;3.85;;
7338;SDS011;33747;49.524;8.390;2023-05-28T07:58:26;6.30;;;4.13;;
7338;SDS011;33747;49.524;8.390;2023-05-28T08:00:51;11.43;;;3.65;;
7338;SDS011;33747;49.524;8.390;2023-05-28T08:03:16;10.82;;;4.93;;
7338;SDS011;33747;49.524;8.390;2023-05-28T08:05:42;5.97;;;3.47;;
7338;SDS011;33747;49.524;8.390;2023-05-28T08:08:08;28.63;;;4.10;;
7338;SDS011;33747;49.524;8.390;2023-05-28T08:10:33;6.07;;;3.78;;
7338;SDS011;33747;49.524;8.390;2023-05-28T08:12:59;9.77;;;3.83;;
7338;SDS011;33747;49.524;8.390;2023-05-28T08:15:24;10.00;;;4.05;;
7338;SDS011;33747;49.524;8.390;2023-05-28T08:17:49;6.57;;;3.60;;
7338;SDS011;33747;49.524;8.390;2023-05-28T08:20:15;9.18;;;3.83;;
7338;SDS011;33747;49.524;8.390;2023-05-28T08:22:40;10.90;;;3.95;;
7338;SDS011;33747;49.524;8.390;2023-05-28T08:25:07;5.45;;;3.67;;
7338;SDS011;33747;49.524;8.390;2023-05-28T08:27:33;12.00;;;3.90;;
7338;SDS011;33747;49.524;8.390;2023-05-28T08:29:59;7.47;;;3.55;;
7338;SDS011;33747;49.524;8.390;2023-05-28T08:32:25;10.43;;;4.43;;
7338;SDS011;33747;49.524;8.390;2023-05-28T08:34:50;10.40;;;4.10;;
7338;SDS011;33747;49.524;8.390;2023-05-28T08:37:15;11.00;;;3.60;;
7338;SDS011;33747;49.524;8.390;2023-05-28T08:39:41;8.52;;;3.75;;
7338;SDS011;33747;49.524;8.390;2023-05-28T08:42:06;6.10;;;3.70;;
7338;SDS011;33747;49.524;8.390;2023-05-28T08:44:32;8.38;;;3.90;;
7338;SDS011;33747;49.524;8.390;2023-05-28T08:46:57;10.43;;;4.32;;
7338;SDS011;33747;49.524;8.390;2023-05-28T08:49:57;8.18;;;3.80;;
7338;SDS011;33747;49.524;8.390;2023-05-28T08:52:16;10.10;;;3.65;;
7338;SDS011;33747;49.524;8.390;2023-05-28T08:54:44;11.13;;;4.78;;
7338;SDS011;33747;49.524;8.390;2023-05-28T08:57:11;11.27;;;3.92;;
7338;SDS011;33747;49.524;8.390;2023-05-28T08:59:36;8.85;;;4.25;;
7338;SDS011;33747;49.524;8.390;2023-05-28T09:02:02;7.65;;;4.07;;
7338;SDS011;33747;49.524;8.390;2023-05-28T09:04:28;10.98;;;4.13;;
7338;SDS011;33747;49.524;8.390;2023-05-28T09:06:53;8.75;;;3.72;;
7338;SDS011;33747;49.524;8.390;2023-05-28T09:09:19;9.07;;;4.30;;
7338;SDS011;33747;49.524;8.390;2023-05-28T09:11:44;8.80;;;3.90;;
7338;SDS011;33747;49.524;8.390;2023-05-28T09:14:11;11.00;;;3.92;;
7338;SDS011;33747;49.524;8.390;2023-05-28T09:16:40;11.32;;;3.90;;
7338;SDS011;33747;49.524;8.390;2023-05-28T09:19:07;7.55;;;4.20;;
7338;SDS011;33747;49.524;8.390;2023-05-28T09:21:32;10.07;;;3.95;;
7338;SDS011;33747;49.524;8.390;2023-05-28T09:24:01;9.80;;;3.88;;
7338;SDS011;33747;49.524;8.390;2023-05-28T09:26:31;7.72;;;4.22;;
7338;SDS011;33747;49.524;8.390;2023-05-28T09:28:58;8.93;;;4.05;;
7338;SDS011;33747;49.524;8.390;2023-05-28T09:31:30;14.05;;;4.22;;
7338;SDS011;33747;49.524;8.390;2023-05-28T09:33:59;12.75;;;3.88;;
7338;SDS011;33747;49.524;8.390;2023-05-28T09:36:28;9.25;;;4.10;;
7338;SDS011;33747;49.524;8.390;2023-05-28T09:38:55;6.00;;;3.67;;
7338;SDS011;33747;49.524;8.390;2023-05-28T09:41:24;10.75;;;3.97;;
7338;SDS011;33747;49.524;8.390;2023-05-28T09:43:59;11.40;;;4.07;;
7338;SDS011;33747;49.524;8.390;2023-05-28T09:46:31;8.80;;;4.25;;
7338;SDS011;33747;49.524;8.390;2023-05-28T09:48:58;6.88;;;4.10;;
7338;SDS011;33747;49.524;8.390;2023-05-28T09:51:25;8.20;;;3.90;;
7338;SDS011;33747;49.524;8.390;2023-05-28T09:53:59;10.02;;;4.18;;
7338;SDS011;33747;49.524;8.390;2023-05-28T09:56:31;7.70;;;4.15;;
7338;SDS011;33747;49.524;8.390;2023-05-28T09:58:58;10.57;;;4.07;;
7338;SDS011;33747;49.524;8.390;2023-05-28T10:01:25;11.80;;;3.97;;
7338;SDS011;33747;49.524;8.390;2023-05-28T10:03:57;11.57;;;4.50;;
7338;SDS011;33747;49.524;8.390;2023-05-28T10:06:27;8.13;;;4.28;;
7338;SDS011;33747;49.524;8.390;2023-05-28T10:08:53;8.20;;;3.88;;
7338;SDS011;33747;49.524;8.390;2023-05-28T10:11:24;9.05;;;4.03;;
7338;SDS011;33747;49.524;8.390;2023-05-28T10:13:54;11.45;;;3.90;;
7338;SDS011;33747;49.524;8.390;2023-05-28T10:16:19;12.75;;;3.60;;
7338;SDS011;33747;49.524;8.390;2023-05-28T10:18:45;10.73;;;3.63;;
7338;SDS011;33747;49.524;8.390;2023-05-28T10:21:11;5.75;;;3.15;;
7338;SDS011;33747;49.524;8.390;2023-05-28T10:23:38;9.02;;;4.10;;
7338;SDS011;33747;49.524;8.390;2023-05-28T10:26:04;9.00;;;4.40;;
7338;SDS011;33747;49.524;8.390;2023-05-28T10:28:29;9.05;;;3.92;;
7338;SDS011;33747;49.524;8.390;2023-05-28T10:31:02;9.23;;;3.90;;
7338;SDS011;33747;49.524;8.390;2023-05-28T10:33:29;6.50;;;3.72;;
7338;SDS011;33747;49.524;8.390;2023-05-28T10:35:56;7.82;;;3.47;;
7338;SDS011;33747;49.524;8.390;2023-05-28T10:38:22;7.22;;;3.58;;
7338;SDS011;33747;49.524;8.390;2023-05-28T10:40:48;8.25;;;3.42;;
7338;SDS011;33747;49.524;8.390;2023-05-28T10:46:20;8.45;;;3.97;;
7338;SDS011;33747;49.524;8.390;2023-05-28T10:54:15;10.95;;;4.85;;
7338;SDS011;33747;49.524;8.390;2023-05-28T10:57:27;8.93;;;4.18;;
7338;SDS011;33747;49.524;8.390;2023-05-28T10:59:47;9.45;;;4.20;;
7338;SDS011;33747;49.524;8.390;2023-05-28T11:02:25;6.47;;;3.58;;
7338;SDS011;33747;49.524;8.390;2023-05-28T11:04:56;6.63;;;3.85;;
7338;SDS011;33747;49.524;8.390;2023-05-28T11:07:37;9.75;;;3.50;;
7338;SDS011;33747;49.524;8.390;2023-05-28T11:10:04;10.18;;;4.07;;
7338;SDS011;33747;49.524;8.390;2023-05-28T11:12:32;7.47;;;3.45;;
7338;SDS011;33747;49.524;8.390;2023-05-28T11:15:00;10.80;;;4.25;;
7338;SDS011;33747;49.524;8.390;2023-05-28T11:17:26;12.75;;;4.13;;
7338;SDS011;33747;49.524;8.390;2023-05-28T11:19:51;8.43;;;3.85;;
7338;SDS011;33747;49.524;8.390;2023-05-28T11:22:18;10.00;;;3.58;;
7338;SDS011;33747;49.524;8.390;2023-05-28T11:24:58;11.05;;;4.18;;
7338;SDS011;33747;49.524;8.390;2023-05-28T11:27:28;7.82;;;3.10;;
7338;SDS011;33747;49.524;8.390;2023-05-28T11:29:55;5.72;;;3.63;;
7338;SDS011;33747;49.524;8.390;2023-05-28T11:32:23;7.57;;;3.95;;
7338;SDS011;33747;49.524;8.390;2023-05-28T11:34:49;6.15;;;3.88;;
7338;SDS011;33747;49.524;8.390;2023-05-28T11:37:15;7.03;;;3.97;;
7338;SDS011;33747;49.524;8.390;2023-05-28T11:39:50;10.65;;;4.57;;
7338;SDS011;33747;49.524;8.390;2023-05-28T11:42:18;9.00;;;3.55;;
7338;SDS011;33747;49.524;8.390;2023-05-28T11:44:44;8.25;;;3.78;;
7338;SDS011;33747;49.524;8.390;2023-05-28T11:47:10;8.00;;;3.65;;
7338;SDS011;33747;49.524;8.390;2023-05-28T11:49:36;6.07;;;3.80;;
7338;SDS011;33747;49.524;8.390;2023-05-28T11:52:02;6.05;;;4.13;;
7338;SDS011;33747;49.524;8.390;2023-05-28T11:54:28;7.43;;;3.42;;
7338;SDS011;33747;49.524;8.390;2023-05-28T11:56:53;6.47;;;4.05;;
7338;SDS011;33747;49.524;8.390;2023-05-28T11:59:21;6.82;;;4.20;;
7338;SDS011;33747;49.524;8.390;2023-05-28T12:01:50;7.93;;;4.15;;
7338;SDS011;33747;49.524;8.390;2023-05-28T12:04:22;10.85;;;3.45;;
7338;SDS011;33747;49.524;8.390;2023-05-28T12:06:53;6.03;;;3.58;;
7338;SDS011;33747;49.524;8.390;2023-05-28T12:09:18;6.97;;;4.55;;
7338;SDS011;33747;49.524;8.390;2023-05-28T12:11:44;7.80;;;4.20;;
7338;SDS011;33747;49.524;8.390;2023-05-28T12:14:10;8.88;;;3.97;;
7338;SDS011;33747;49.524;8.390;2023-05-28T12:16:43;7.55;;;3.75;;
7338;SDS011;33747;49.524;8.390;2023-05-28T12:19:11;7.75;;;4.20;;
7338;SDS011;33747;49.524;8.390;2023-05-28T12:21:39;6.78;;;3.72;;
7338;SDS011;33747;49.524;8.390;2023-05-28T12:24:11;4.78;;;3.47;;
7338;SDS011;33747;49.524;8.390;2023-05-28T12:26:40;8.07;;;3.70;;
7338;SDS011;33747;49.524;8.390;2023-05-28T12:29:06;10.73;;;3.95;;
7338;SDS011;33747;49.524;8.390;2023-05-28T12:31:31;9.00;;;4.47;;
7338;SDS011;33747;49.524;8.390;2023-05-28T12:33:57;7.63;;;3.67;;
7338;SDS011;33747;49.524;8.390;2023-05-28T12:36:22;15.88;;;3.97;;
7338;SDS011;33747;49.524;8.390;2023-05-28T12:38:47;5.40;;;3.35;;
7338;SDS011;33747;49.524;8.390;2023-05-28T12:41:13;5.68;;;3.58;;
7338;SDS011;33747;49.524;8.390;2023-05-28T12:43:38;5.22;;;3.50;;
7338;SDS011;33747;49.524;8.390;2023-05-28T12:46:03;11.10;;;4.30;;
7338;SDS011;33747;49.524;8.390;2023-05-28T12:48:29;5.32;;;3.53;;
7338;SDS011;33747;49.524;8.390;2023-05-28T12:50:54;5.13;;;3.25;;
7338;SDS011;33747;49.524;8.390;2023-05-28T12:53:20;7.50;;;4.05;;
7338;SDS011;33747;49.524;8.390;2023-05-28T12:55:45;9.50;;;3.90;;
7338;SDS011;33747;49.524;8.390;2023-05-28T12:58:11;7.03;;;4.07;;
7338;SDS011;33747;49.524;8.390;2023-05-28T13:00:36;11.88;;;3.55;;
7338;SDS011;33747;49.524;8.390;2023-05-28T13:03:01;6.45;;;3.78;;
7338;SDS011;33747;49.524;8.390;2023-05-28T13:05:28;7.55;;;4.00;;
7338;SDS011;33747;49.524;8.390;2023-05-28T13:08:02;7.00;;;3.95;;
7338;SDS011;33747;49.524;8.390;2023-05-28T13:10:27;10.75;;;3.70;;
7338;SDS011;33747;49.524;8.390;2023-05-28T13:12:53;8.50;;;4.20;;
7338;SDS011;33747;49.524;8.390;2023-05-28T13:15:18;7.22;;;3.80;;
7338;SDS011;33747;49.524;8.390;2023-05-28T13:17:43;8.20;;;4.32;;
7338;SDS011;33747;49.524;8.390;2023-05-28T13:20:09;7.00;;;4.15;;
7338;SDS011;33747;49.524;8.390;2023-05-28T13:22:35;9.35;;;3.65;;
7338;SDS011;33747;49.524;8.390;2023-05-28T13:25:02;8.27;;;4.30;;
7338;SDS011;33747;49.524;8.390;2023-05-28T13:27:28;10.63;;;4.68;;
7338;SDS011;33747;49.524;8.390;2023-05-28T13:29:53;7.93;;;3.70;;
7338;SDS011;33747;49.524;8.390;2023-05-28T13:32:18;9.40;;;4.35;;
7338;SDS011;33747;49.524;8.390;2023-05-28T13:34:44;7.65;;;4.38;;
7338;SDS011;33747;49.524;8.390;2023-05-28T13:37:10;6.32;;;3.67;;
7338;SDS011;33747;49.524;8.390;2023-05-28T13:39:35;5.65;;;4.22;;
7338;SDS011;33747;49.524;8.390;2023-05-28T13:42:01;8.63;;;4.15;;
7338;SDS011;33747;49.524;8.390;2023-05-28T13:44:28;8.25;;;3.70;;
7338;SDS011;33747;49.524;8.390;2023-05-28T13:46:53;9.43;;;4.28;;
7338;SDS011;33747;49.524;8.390;2023-05-28T13:49:19;9.10;;;4.40;;
7338;SDS011;33747;49.524;8.390;2023-05-28T13:51:45;7.68;;;4.03;;
7338;SDS011;33747;49.524;8.390;2023-05-28T13:54:13;7.40;;;4.10;;
7338;SDS011;33747;49.524;8.390;2023-05-28T13:56:38;7.25;;;4.18;;
7338;SDS011;33747;49.524;8.390;2023-05-28T13:59:04;7.22;;;3.88;;
7338;SDS011;33747;49.524;8.390;2023-05-28T14:01:29;9.90;;;4.22;;
7338;SDS011;33747;49.524;8.390;2023-05-28T14:03:54;10.23;;;4.53;;
7338;SDS011;33747;49.524;8.390;2023-05-28T14:06:20;7.80;;;3.95;;
7338;SDS011;33747;49.524;8.390;2023-05-28T14:08:45;6.20;;;4.28;;
7338;SDS011;33747;49.524;8.390;2023-05-28T14:11:11;14.73;;;4.38;;
7338;SDS011;33747;49.524;8.390;2023-05-28T14:13:36;6.50;;;4.18;;
7338;SDS011;33747;49.524;8.390;2023-05-28T14:16:01;6.93;;;4.45;;
7338;SDS011;33747;49.524;8.390;2023-05-28T14:18:27;8.30;;;4.43;;
7338;SDS011;33747;49.524;8.390;2023-05-28T14:20:52;9.63;;;4.18;;
7338;SDS011;33747;49.524;8.390;2023-05-28T14:23:18;7.95;;;4.00;;
7338;SDS011;33747;49.524;8.390;2023-05-28T14:25:43;8.15;;;4.30;;
7338;SDS011;33747;49.524;8.390;2023-05-28T14:28:08;9.73;;;4.80;;
7338;SDS011;33747;49.524;8.390;2023-05-28T14:30:34;8.32;;;4.30;;
7338;SDS011;33747;49.524;8.390;2023-05-28T14:32:59;6.65;;;4.32;;
7338;SDS011;33747;49.524;8.390;2023-05-28T14:35:25;6.25;;;4.47;;
7338;SDS011;33747;49.524;8.390;2023-05-28T14:37:50;9.25;;;4.57;;
7338;SDS011;33747;49.524;8.390;2023-05-28T14:40:19;7.20;;;4.60;;
7338;SDS011;33747;49.524;8.390;2023-05-28T14:42:44;8.73;;;4.88;;
7338;SDS011;33747;49.524;8.390;2023-05-28T14:45:10;9.63;;;4.00;;
7338;SDS011;33747;49.524;8.390;2023-05-28T14:47:36;9.38;;;4.90;;
7338;SDS011;33747;49.524;8.390;2023-05-28T14:50:01;11.48;;;4.70;;
7338;SDS011;33747;49.524;8.390;2023-05-28T14:52:28;8.02;;;4.50;;
7338;SDS011;33747;49.524;8.390;2023-05-28T14:54:55;9.82;;;4.28;;
7338;SDS011;33747;49.524;8.390;2023-05-28T14:57:21;9.50;;;4.38;;
7338;SDS011;33747;49.524;8.390;2023-05-28T14:59:47;10.85;;;4.78;;
7338;SDS011;33747;49.524;8.390;2023-05-28T15:02:13;7.38;;;4.88;;
7338;SDS011;33747;49.524;8.390;2023-05-28T15:04:38;7.65;;;4.25;;